sensor_id;sensor_type;location;lat;lon;timestamp;temperature;humidity
75442;DHT22;64019;48.312;14.226;2024-01-07T00:01:57;4.20;99.90
75442;DHT22;64019;48.312;14.226;2024-01-07T00:04:22;4.20;99.90
75442;DHT22;64019;48.312;14.226;2024-01-07T00:06:48;4.10;99.90
75442;DHT22;64019;48.312;14.226;2024-01-07T00:09:14;4.10;99.90
75442;DHT22;64019;48.312;14.226;2024-01-07T00:11:40;4.00;99.90
75442;DHT22;64019;48.312;14.226;2024-01-07T00:14:06;4.00;99.90
75442;DHT22;64019;48.312;14.226;2024-01-07T00:16:32;4.00;99.90
75442;DHT22;64019;48.312;14.226;2024-01-07T00:18:57;4.00;99.90
75442;DHT22;64019;48.312;14.226;2024-01-07T00:21:23;4.00;99.90
75442;DHT22;64019;48.312;14.226;2024-01-07T00:23:50;3.90;99.90
75442;DHT22;64019;48.312;14.226;2024-01-07T00:26:15;4.00;99.90
75442;DHT22;64019;48.312;14.226;2024-01-07T00:28:41;4.00;99.90
75442;DHT22;64019;48.312;14.226;2024-01-07T00:31:07;4.00;99.90
75442;DHT22;64019;48.312;14.226;2024-01-07T00:33:34;4.00;99.90
75442;DHT22;64019;48.312;14.226;2024-01-07T00:36:01;4.00;99.90
75442;DHT22;64019;48.312;14.226;2024-01-07T00:38:28;4.00;99.90
75442;DHT22;64019;48.312;14.226;2024-01-07T00:40:53;4.00;99.90
75442;DHT22;64019;48.312;14.226;2024-01-07T00:43:19;4.00;99.90
75442;DHT22;64019;48.312;14.226;2024-01-07T00:45:44;4.00;99.90
75442;DHT22;64019;48.312;14.226;2024-01-07T00:48:10;3.90;99.90
75442;DHT22;64019;48.312;14.226;2024-01-07T00:50:36;3.90;99.90
75442;DHT22;64019;48.312;14.226;2024-01-07T00:53:02;3.90;99.90
75442;DHT22;64019;48.312;14.226;2024-01-07T00:55:27;3.90;99.90
75442;DHT22;64019;48.312;14.226;2024-01-07T00:57:53;3.90;99.90
75442;DHT22;64019;48.312;14.226;2024-01-07T01:00:19;3.90;99.90
75442;DHT22;64019;48.312;14.226;2024-01-07T01:02:45;3.90;99.90
75442;DHT22;64019;48.312;14.226;2024-01-07T01:05:11;3.90;99.90
75442;DHT22;64019;48.312;14.226;2024-01-07T01:07:37;4.00;99.90
75442;DHT22;64019;48.312;14.226;2024-01-07T01:10:03;4.10;99.90
75442;DHT22;64019;48.312;14.226;2024-01-07T01:12:29;4.10;99.90
75442;DHT22;64019;48.312;14.226;2024-01-07T01:14:54;4.00;99.90
75442;DHT22;64019;48.312;14.226;2024-01-07T01:17:20;4.10;99.90
75442;DHT22;64019;48.312;14.226;2024-01-07T01:19:46;4.10;99.90
75442;DHT22;64019;48.312;14.226;2024-01-07T01:22:11;4.10;99.90
75442;DHT22;64019;48.312;14.226;2024-01-07T01:24:37;4.10;99.90
75442;DHT22;64019;48.312;14.226;2024-01-07T01:27:03;4.00;99.90
75442;DHT22;64019;48.312;14.226;2024-01-07T01:29:29;4.00;99.90
75442;DHT22;64019;48.312;14.226;2024-01-07T01:31:54;4.00;99.90
75442;DHT22;64019;48.312;14.226;2024-01-07T01:34:20;4.00;99.90
75442;DHT22;64019;48.312;14.226;2024-01-07T01:36:46;4.00;99.90
75442;DHT22;64019;48.312;14.226;2024-01-07T01:39:11;4.00;99.90
75442;DHT22;64019;48.312;14.226;2024-01-07T01:41:37;4.00;99.90
75442;DHT22;64019;48.312;14.226;2024-01-07T01:44:03;4.00;99.90
75442;DHT22;64019;48.312;14.226;2024-01-07T01:46:29;4.00;99.90
75442;DHT22;64019;48.312;14.226;2024-01-07T01:48:56;3.90;99.90
75442;DHT22;64019;48.312;14.226;2024-01-07T01:51:22;3.80;99.90
75442;DHT22;64019;48.312;14.226;2024-01-07T01:53:49;3.80;99.90
75442;DHT22;64019;48.312;14.226;2024-01-07T01:56:17;3.80;99.90
75442;DHT22;64019;48.312;14.226;2024-01-07T01:58:44;3.80;99.90
75442;DHT22;64019;48.312;14.226;2024-01-07T02:01:10;3.80;99.90
75442;DHT22;64019;48.312;14.226;2024-01-07T02:03:36;3.80;99.90
75442;DHT22;64019;48.312;14.226;2024-01-07T02:06:01;3.80;99.90
75442;DHT22;64019;48.312;14.226;2024-01-07T02:08:27;3.90;99.90
75442;DHT22;64019;48.312;14.226;2024-01-07T02:10:53;3.80;99.90
75442;DHT22;64019;48.312;14.226;2024-01-07T02:13:19;3.80;99.90
75442;DHT22;64019;48.312;14.226;2024-01-07T02:15:44;3.90;99.90
75442;DHT22;64019;48.312;14.226;2024-01-07T02:18:10;3.80;99.90
75442;DHT22;64019;48.312;14.226;2024-01-07T02:20:36;3.80;99.90
75442;DHT22;64019;48.312;14.226;2024-01-07T02:23:03;3.80;99.90
75442;DHT22;64019;48.312;14.226;2024-01-07T02:25:28;3.70;99.90
75442;DHT22;64019;48.312;14.226;2024-01-07T02:27:54;3.70;99.90
75442;DHT22;64019;48.312;14.226;2024-01-07T02:30:20;3.70;99.90
75442;DHT22;64019;48.312;14.226;2024-01-07T02:32:46;3.80;99.90
75442;DHT22;64019;48.312;14.226;2024-01-07T02:35:11;3.80;99.90
75442;DHT22;64019;48.312;14.226;2024-01-07T02:37:37;3.90;99.90
75442;DHT22;64019;48.312;14.226;2024-01-07T02:40:03;3.90;99.90
75442;DHT22;64019;48.312;14.226;2024-01-07T02:42:29;3.90;99.90
75442;DHT22;64019;48.312;14.226;2024-01-07T02:44:55;3.90;99.90
75442;DHT22;64019;48.312;14.226;2024-01-07T02:47:20;4.00;99.90
75442;DHT22;64019;48.312;14.226;2024-01-07T02:49:46;4.00;99.90
75442;DHT22;64019;48.312;14.226;2024-01-07T02:52:11;4.10;99.90
75442;DHT22;64019;48.312;14.226;2024-01-07T02:54:37;4.10;99.90
75442;DHT22;64019;48.312;14.226;2024-01-07T02:57:03;4.10;99.90
75442;DHT22;64019;48.312;14.226;2024-01-07T02:59:29;4.10;99.90
75442;DHT22;64019;48.312;14.226;2024-01-07T03:01:54;4.10;99.90
75442;DHT22;64019;48.312;14.226;2024-01-07T03:04:20;4.10;99.90
75442;DHT22;64019;48.312;14.226;2024-01-07T03:06:45;4.10;99.90
75442;DHT22;64019;48.312;14.226;2024-01-07T03:09:11;4.10;99.90
75442;DHT22;64019;48.312;14.226;2024-01-07T03:11:41;4.10;99.90
75442;DHT22;64019;48.312;14.226;2024-01-07T03:14:07;4.10;99.90
75442;DHT22;64019;48.312;14.226;2024-01-07T03:16:32;4.10;99.90
75442;DHT22;64019;48.312;14.226;2024-01-07T03:18:58;4.10;99.90
75442;DHT22;64019;48.312;14.226;2024-01-07T03:21:24;4.10;99.90
75442;DHT22;64019;48.312;14.226;2024-01-07T03:23:50;4.20;99.90
75442;DHT22;64019;48.312;14.226;2024-01-07T03:26:17;4.20;99.90
75442;DHT22;64019;48.312;14.226;2024-01-07T03:28:43;4.20;99.90
75442;DHT22;64019;48.312;14.226;2024-01-07T03:31:12;4.10;99.90
75442;DHT22;64019;48.312;14.226;2024-01-07T03:33:38;4.20;99.90
75442;DHT22;64019;48.312;14.226;2024-01-07T03:36:08;4.10;99.90
75442;DHT22;64019;48.312;14.226;2024-01-07T03:38:35;4.10;99.90
75442;DHT22;64019;48.312;14.226;2024-01-07T03:41:01;4.10;99.90
75442;DHT22;64019;48.312;14.226;2024-01-07T03:43:26;4.20;99.90
75442;DHT22;64019;48.312;14.226;2024-01-07T03:45:52;4.20;99.90
75442;DHT22;64019;48.312;14.226;2024-01-07T03:48:18;4.20;99.90
75442;DHT22;64019;48.312;14.226;2024-01-07T03:50:44;4.20;99.90
75442;DHT22;64019;48.312;14.226;2024-01-07T03:53:10;4.20;99.90
75442;DHT22;64019;48.312;14.226;2024-01-07T03:55:35;4.20;99.90
75442;DHT22;64019;48.312;14.226;2024-01-07T03:58:01;4.20;99.90
75442;DHT22;64019;48.312;14.226;2024-01-07T04:00:27;4.10;99.90
75442;DHT22;64019;48.312;14.226;2024-01-07T04:02:52;4.20;99.90
75442;DHT22;64019;48.312;14.226;2024-01-07T04:05:18;4.20;99.90
75442;DHT22;64019;48.312;14.226;2024-01-07T04:07:44;4.10;99.90
75442;DHT22;64019;48.312;14.226;2024-01-07T04:10:09;4.10;99.90
75442;DHT22;64019;48.312;14.226;2024-01-07T04:12:36;4.10;99.90
75442;DHT22;64019;48.312;14.226;2024-01-07T04:15:02;4.10;99.90
75442;DHT22;64019;48.312;14.226;2024-01-07T04:17:29;4.10;99.90
75442;DHT22;64019;48.312;14.226;2024-01-07T04:19:55;4.10;99.90
75442;DHT22;64019;48.312;14.226;2024-01-07T04:22:21;4.10;99.90
75442;DHT22;64019;48.312;14.226;2024-01-07T04:24:46;4.10;99.90
75442;DHT22;64019;48.312;14.226;2024-01-07T04:27:12;4.10;99.90
75442;DHT22;64019;48.312;14.226;2024-01-07T04:29:38;4.10;99.90
75442;DHT22;64019;48.312;14.226;2024-01-07T04:32:04;4.10;99.90
75442;DHT22;64019;48.312;14.226;2024-01-07T04:34:29;4.10;99.90
75442;DHT22;64019;48.312;14.226;2024-01-07T04:36:55;4.10;99.90
75442;DHT22;64019;48.312;14.226;2024-01-07T04:39:21;4.10;99.90
75442;DHT22;64019;48.312;14.226;2024-01-07T04:41:47;4.10;99.90
75442;DHT22;64019;48.312;14.226;2024-01-07T04:44:12;4.10;99.90
75442;DHT22;64019;48.312;14.226;2024-01-07T04:46:39;4.10;99.90
75442;DHT22;64019;48.312;14.226;2024-01-07T04:49:05;4.10;99.90
75442;DHT22;64019;48.312;14.226;2024-01-07T04:51:34;4.10;99.90
75442;DHT22;64019;48.312;14.226;2024-01-07T04:53:59;4.10;99.90
75442;DHT22;64019;48.312;14.226;2024-01-07T04:56:25;4.20;99.90
75442;DHT22;64019;48.312;14.226;2024-01-07T04:58:51;4.20;99.90
75442;DHT22;64019;48.312;14.226;2024-01-07T05:01:16;4.20;99.90
75442;DHT22;64019;48.312;14.226;2024-01-07T05:03:42;4.10;99.90
75442;DHT22;64019;48.312;14.226;2024-01-07T05:06:11;4.10;99.90
75442;DHT22;64019;48.312;14.226;2024-01-07T05:08:37;4.10;99.90
75442;DHT22;64019;48.312;14.226;2024-01-07T05:11:04;4.10;99.90
75442;DHT22;64019;48.312;14.226;2024-01-07T05:13:30;4.10;99.90
75442;DHT22;64019;48.312;14.226;2024-01-07T05:15:56;4.10;99.90
75442;DHT22;64019;48.312;14.226;2024-01-07T05:18:23;4.10;99.90
75442;DHT22;64019;48.312;14.226;2024-01-07T05:20:49;4.10;99.90
75442;DHT22;64019;48.312;14.226;2024-01-07T05:23:15;4.10;99.90
75442;DHT22;64019;48.312;14.226;2024-01-07T05:25:45;4.10;99.90
75442;DHT22;64019;48.312;14.226;2024-01-07T05:28:11;4.10;99.90
75442;DHT22;64019;48.312;14.226;2024-01-07T05:30:39;4.00;99.90
75442;DHT22;64019;48.312;14.226;2024-01-07T05:33:04;4.00;99.90
75442;DHT22;64019;48.312;14.226;2024-01-07T05:35:31;4.00;99.90
75442;DHT22;64019;48.312;14.226;2024-01-07T05:37:57;4.00;99.90
75442;DHT22;64019;48.312;14.226;2024-01-07T05:40:22;4.00;99.90
75442;DHT22;64019;48.312;14.226;2024-01-07T05:42:48;4.00;99.90
75442;DHT22;64019;48.312;14.226;2024-01-07T05:45:14;3.90;99.90
75442;DHT22;64019;48.312;14.226;2024-01-07T05:47:40;3.90;99.90
75442;DHT22;64019;48.312;14.226;2024-01-07T05:50:08;3.90;99.90
75442;DHT22;64019;48.312;14.226;2024-01-07T05:52:34;3.90;99.90
75442;DHT22;64019;48.312;14.226;2024-01-07T05:55:00;3.80;99.90
75442;DHT22;64019;48.312;14.226;2024-01-07T05:57:26;3.80;99.90
75442;DHT22;64019;48.312;14.226;2024-01-07T05:59:52;3.80;99.90
75442;DHT22;64019;48.312;14.226;2024-01-07T06:02:17;3.70;99.90
75442;DHT22;64019;48.312;14.226;2024-01-07T06:04:43;3.70;99.90
75442;DHT22;64019;48.312;14.226;2024-01-07T06:07:09;3.70;99.90
75442;DHT22;64019;48.312;14.226;2024-01-07T06:09:35;3.60;99.90
75442;DHT22;64019;48.312;14.226;2024-01-07T06:12:01;3.50;99.90
75442;DHT22;64019;48.312;14.226;2024-01-07T06:14:27;3.50;99.90
75442;DHT22;64019;48.312;14.226;2024-01-07T06:16:53;3.50;99.90
75442;DHT22;64019;48.312;14.226;2024-01-07T06:19:19;3.60;99.90
75442;DHT22;64019;48.312;14.226;2024-01-07T06:21:45;3.70;99.90
75442;DHT22;64019;48.312;14.226;2024-01-07T06:24:11;3.60;99.90
75442;DHT22;64019;48.312;14.226;2024-01-07T06:26:37;3.50;99.90
75442;DHT22;64019;48.312;14.226;2024-01-07T06:29:02;3.50;99.90
75442;DHT22;64019;48.312;14.226;2024-01-07T06:31:28;3.50;99.90
75442;DHT22;64019;48.312;14.226;2024-01-07T06:33:54;3.40;99.90
75442;DHT22;64019;48.312;14.226;2024-01-07T06:36:23;3.30;99.90
75442;DHT22;64019;48.312;14.226;2024-01-07T06:38:49;3.30;99.90
75442;DHT22;64019;48.312;14.226;2024-01-07T06:41:15;3.30;99.90
75442;DHT22;64019;48.312;14.226;2024-01-07T06:43:41;3.40;99.90
75442;DHT22;64019;48.312;14.226;2024-01-07T06:46:07;3.40;99.90
75442;DHT22;64019;48.312;14.226;2024-01-07T06:48:32;3.40;99.90
75442;DHT22;64019;48.312;14.226;2024-01-07T06:50:58;3.30;99.90
75442;DHT22;64019;48.312;14.226;2024-01-07T06:53:24;3.30;99.90
75442;DHT22;64019;48.312;14.226;2024-01-07T06:55:50;3.30;99.90
75442;DHT22;64019;48.312;14.226;2024-01-07T06:58:15;3.30;99.90
75442;DHT22;64019;48.312;14.226;2024-01-07T07:00:41;3.30;99.90
75442;DHT22;64019;48.312;14.226;2024-01-07T07:03:08;3.30;99.90
75442;DHT22;64019;48.312;14.226;2024-01-07T07:05:34;3.30;99.90
75442;DHT22;64019;48.312;14.226;2024-01-07T07:08:00;3.30;99.90
75442;DHT22;64019;48.312;14.226;2024-01-07T07:10:25;3.20;99.90
75442;DHT22;64019;48.312;14.226;2024-01-07T07:12:51;3.30;99.90
75442;DHT22;64019;48.312;14.226;2024-01-07T07:15:17;3.30;99.90
75442;DHT22;64019;48.312;14.226;2024-01-07T07:17:43;3.30;99.90
75442;DHT22;64019;48.312;14.226;2024-01-07T07:20:09;3.30;99.90
75442;DHT22;64019;48.312;14.226;2024-01-07T07:22:35;3.20;99.90
75442;DHT22;64019;48.312;14.226;2024-01-07T07:25:01;3.20;99.90
75442;DHT22;64019;48.312;14.226;2024-01-07T07:27:27;3.20;99.90
75442;DHT22;64019;48.312;14.226;2024-01-07T07:29:53;3.10;99.90
75442;DHT22;64019;48.312;14.226;2024-01-07T07:32:19;3.10;99.90
75442;DHT22;64019;48.312;14.226;2024-01-07T07:34:45;3.10;99.90
75442;DHT22;64019;48.312;14.226;2024-01-07T07:37:12;3.10;99.90
75442;DHT22;64019;48.312;14.226;2024-01-07T07:39:38;3.10;99.90
75442;DHT22;64019;48.312;14.226;2024-01-07T07:42:04;3.10;99.90
75442;DHT22;64019;48.312;14.226;2024-01-07T07:44:30;3.10;99.90
75442;DHT22;64019;48.312;14.226;2024-01-07T07:46:55;3.10;99.90
75442;DHT22;64019;48.312;14.226;2024-01-07T07:49:21;3.10;99.90
75442;DHT22;64019;48.312;14.226;2024-01-07T07:51:47;3.10;99.90
75442;DHT22;64019;48.312;14.226;2024-01-07T07:54:12;3.10;99.90
75442;DHT22;64019;48.312;14.226;2024-01-07T07:56:38;3.20;99.90
75442;DHT22;64019;48.312;14.226;2024-01-07T07:59:04;3.00;99.90
75442;DHT22;64019;48.312;14.226;2024-01-07T08:01:30;3.10;99.90
75442;DHT22;64019;48.312;14.226;2024-01-07T08:03:55;3.10;99.90
75442;DHT22;64019;48.312;14.226;2024-01-07T08:06:21;3.10;99.90
75442;DHT22;64019;48.312;14.226;2024-01-07T08:08:48;3.20;99.90
75442;DHT22;64019;48.312;14.226;2024-01-07T08:11:13;3.20;99.90
75442;DHT22;64019;48.312;14.226;2024-01-07T08:13:39;3.20;99.90
75442;DHT22;64019;48.312;14.226;2024-01-07T08:16:05;3.20;99.90
75442;DHT22;64019;48.312;14.226;2024-01-07T08:18:31;3.20;99.90
75442;DHT22;64019;48.312;14.226;2024-01-07T08:20:57;3.20;99.90
75442;DHT22;64019;48.312;14.226;2024-01-07T08:23:24;3.10;99.90
75442;DHT22;64019;48.312;14.226;2024-01-07T08:25:50;3.10;99.90
75442;DHT22;64019;48.312;14.226;2024-01-07T08:28:17;3.10;99.90
75442;DHT22;64019;48.312;14.226;2024-01-07T08:30:43;3.10;99.90
75442;DHT22;64019;48.312;14.226;2024-01-07T08:33:10;3.20;99.90
75442;DHT22;64019;48.312;14.226;2024-01-07T08:35:36;3.20;99.90
75442;DHT22;64019;48.312;14.226;2024-01-07T08:38:01;3.20;99.90
75442;DHT22;64019;48.312;14.226;2024-01-07T08:40:27;3.20;99.90
75442;DHT22;64019;48.312;14.226;2024-01-07T08:42:54;3.20;99.90
75442;DHT22;64019;48.312;14.226;2024-01-07T08:45:20;3.20;99.90
75442;DHT22;64019;48.312;14.226;2024-01-07T08:47:46;3.20;99.90
75442;DHT22;64019;48.312;14.226;2024-01-07T08:50:12;3.10;99.90
75442;DHT22;64019;48.312;14.226;2024-01-07T08:52:38;3.10;99.90
75442;DHT22;64019;48.312;14.226;2024-01-07T08:55:04;3.10;99.90
75442;DHT22;64019;48.312;14.226;2024-01-07T08:57:32;3.00;99.90
75442;DHT22;64019;48.312;14.226;2024-01-07T08:59:57;3.10;99.90
75442;DHT22;64019;48.312;14.226;2024-01-07T09:02:23;3.20;99.90
75442;DHT22;64019;48.312;14.226;2024-01-07T09:04:49;3.10;99.90
75442;DHT22;64019;48.312;14.226;2024-01-07T09:07:15;3.20;99.90
75442;DHT22;64019;48.312;14.226;2024-01-07T09:09:42;3.20;99.90
75442;DHT22;64019;48.312;14.226;2024-01-07T09:12:08;3.20;99.90
75442;DHT22;64019;48.312;14.226;2024-01-07T09:14:33;3.20;99.90
75442;DHT22;64019;48.312;14.226;2024-01-07T09:16:59;3.20;99.90
75442;DHT22;64019;48.312;14.226;2024-01-07T09:19:25;3.30;99.90
75442;DHT22;64019;48.312;14.226;2024-01-07T09:21:50;3.20;99.90
75442;DHT22;64019;48.312;14.226;2024-01-07T09:24:16;3.30;99.90
75442;DHT22;64019;48.312;14.226;2024-01-07T09:26:42;3.40;99.90
75442;DHT22;64019;48.312;14.226;2024-01-07T09:29:08;3.30;99.90
75442;DHT22;64019;48.312;14.226;2024-01-07T09:31:33;3.30;99.90
75442;DHT22;64019;48.312;14.226;2024-01-07T09:33:59;3.30;99.90
75442;DHT22;64019;48.312;14.226;2024-01-07T09:36:25;3.40;99.90
75442;DHT22;64019;48.312;14.226;2024-01-07T09:38:51;3.40;99.90
75442;DHT22;64019;48.312;14.226;2024-01-07T09:41:16;3.50;99.90
75442;DHT22;64019;48.312;14.226;2024-01-07T09:43:42;3.50;99.90
75442;DHT22;64019;48.312;14.226;2024-01-07T09:46:08;3.50;99.90
75442;DHT22;64019;48.312;14.226;2024-01-07T09:48:34;3.50;99.90
75442;DHT22;64019;48.312;14.226;2024-01-07T09:51:00;3.40;99.90
75442;DHT22;64019;48.312;14.226;2024-01-07T09:53:30;3.40;99.90
75442;DHT22;64019;48.312;14.226;2024-01-07T09:58:31;3.50;99.90
75442;DHT22;64019;48.312;14.226;2024-01-07T10:00:56;3.50;99.90
75442;DHT22;64019;48.312;14.226;2024-01-07T10:03:22;3.40;99.90
75442;DHT22;64019;48.312;14.226;2024-01-07T10:05:48;3.50;99.90
75442;DHT22;64019;48.312;14.226;2024-01-07T10:08:14;3.40;99.90
75442;DHT22;64019;48.312;14.226;2024-01-07T10:10:39;3.40;99.90
75442;DHT22;64019;48.312;14.226;2024-01-07T10:13:06;3.50;99.90
75442;DHT22;64019;48.312;14.226;2024-01-07T10:15:34;3.60;99.90
75442;DHT22;64019;48.312;14.226;2024-01-07T10:18:07;3.60;99.90
75442;DHT22;64019;48.312;14.226;2024-01-07T10:20:33;3.60;99.90
75442;DHT22;64019;48.312;14.226;2024-01-07T10:23:01;3.60;99.90
75442;DHT22;64019;48.312;14.226;2024-01-07T10:25:32;3.70;99.90
75442;DHT22;64019;48.312;14.226;2024-01-07T10:28:01;3.70;99.90
75442;DHT22;64019;48.312;14.226;2024-01-07T10:30:28;3.60;99.90
75442;DHT22;64019;48.312;14.226;2024-01-07T10:33:00;3.60;99.90
75442;DHT22;64019;48.312;14.226;2024-01-07T10:35:31;3.70;99.90
75442;DHT22;64019;48.312;14.226;2024-01-07T10:37:59;3.70;99.90
75442;DHT22;64019;48.312;14.226;2024-01-07T10:40:27;3.70;99.90
75442;DHT22;64019;48.312;14.226;2024-01-07T10:42:54;3.80;99.90
75442;DHT22;64019;48.312;14.226;2024-01-07T10:45:21;3.90;99.90
75442;DHT22;64019;48.312;14.226;2024-01-07T10:47:51;3.90;99.90
75442;DHT22;64019;48.312;14.226;2024-01-07T10:50:20;3.90;99.90
75442;DHT22;64019;48.312;14.226;2024-01-07T10:52:49;3.90;99.90
75442;DHT22;64019;48.312;14.226;2024-01-07T10:55:18;3.90;99.90
75442;DHT22;64019;48.312;14.226;2024-01-07T10:57:46;3.80;99.90
75442;DHT22;64019;48.312;14.226;2024-01-07T11:00:15;3.80;99.90
75442;DHT22;64019;48.312;14.226;2024-01-07T11:10:50;3.30;99.90
75442;DHT22;64019;48.312;14.226;2024-01-07T11:13:35;3.20;99.90
75442;DHT22;64019;48.312;14.226;2024-01-07T11:16:02;3.30;99.90
75442;DHT22;64019;48.312;14.226;2024-01-07T11:18:28;3.30;99.90
75442;DHT22;64019;48.312;14.226;2024-01-07T11:21:00;3.50;99.90
75442;DHT22;64019;48.312;14.226;2024-01-07T11:23:43;3.50;99.90
75442;DHT22;64019;48.312;14.226;2024-01-07T11:26:08;3.60;99.90
75442;DHT22;64019;48.312;14.226;2024-01-07T11:29:04;3.60;99.90
75442;DHT22;64019;48.312;14.226;2024-01-07T11:31:43;3.60;99.90
75442;DHT22;64019;48.312;14.226;2024-01-07T11:34:09;3.60;99.90
75442;DHT22;64019;48.312;14.226;2024-01-07T11:36:36;3.60;99.90
75442;DHT22;64019;48.312;14.226;2024-01-07T11:39:03;3.60;99.90
75442;DHT22;64019;48.312;14.226;2024-01-07T11:41:33;3.60;99.90
75442;DHT22;64019;48.312;14.226;2024-01-07T11:44:00;3.50;99.90
75442;DHT22;64019;48.312;14.226;2024-01-07T11:46:30;3.50;99.90
75442;DHT22;64019;48.312;14.226;2024-01-07T11:49:00;3.50;99.90
75442;DHT22;64019;48.312;14.226;2024-01-07T11:51:29;3.50;99.90
75442;DHT22;64019;48.312;14.226;2024-01-07T11:53:59;3.40;99.90
75442;DHT22;64019;48.312;14.226;2024-01-07T11:56:25;3.30;99.90
75442;DHT22;64019;48.312;14.226;2024-01-07T11:58:51;3.10;99.90
75442;DHT22;64019;48.312;14.226;2024-01-07T12:01:18;2.90;99.90
75442;DHT22;64019;48.312;14.226;2024-01-07T12:03:44;2.80;99.90
75442;DHT22;64019;48.312;14.226;2024-01-07T12:06:11;2.70;99.90
75442;DHT22;64019;48.312;14.226;2024-01-07T12:08:43;2.80;99.90
75442;DHT22;64019;48.312;14.226;2024-01-07T12:11:12;2.80;99.90
75442;DHT22;64019;48.312;14.226;2024-01-07T12:13:38;2.70;99.90
75442;DHT22;64019;48.312;14.226;2024-01-07T12:16:05;2.60;99.90
75442;DHT22;64019;48.312;14.226;2024-01-07T12:18:31;2.70;99.90
75442;DHT22;64019;48.312;14.226;2024-01-07T12:20:58;2.70;99.90
75442;DHT22;64019;48.312;14.226;2024-01-07T12:23:25;2.70;99.90
75442;DHT22;64019;48.312;14.226;2024-01-07T12:25:54;2.60;99.90
75442;DHT22;64019;48.312;14.226;2024-01-07T12:28:23;2.60;99.90
75442;DHT22;64019;48.312;14.226;2024-01-07T12:30:49;2.70;99.90
75442;DHT22;64019;48.312;14.226;2024-01-07T12:33:17;2.70;99.90
75442;DHT22;64019;48.312;14.226;2024-01-07T12:35:47;2.80;99.90
75442;DHT22;64019;48.312;14.226;2024-01-07T12:38:13;2.80;99.90
75442;DHT22;64019;48.312;14.226;2024-01-07T12:40:39;2.80;99.90
75442;DHT22;64019;48.312;14.226;2024-01-07T12:43:05;2.70;99.90
75442;DHT22;64019;48.312;14.226;2024-01-07T12:45:34;2.70;99.90
75442;DHT22;64019;48.312;14.226;2024-01-07T12:47:59;2.70;99.90
75442;DHT22;64019;48.312;14.226;2024-01-07T12:50:28;2.60;99.90
75442;DHT22;64019;48.312;14.226;2024-01-07T12:52:55;2.70;99.90
75442;DHT22;64019;48.312;14.226;2024-01-07T12:55:22;2.60;99.90
75442;DHT22;64019;48.312;14.226;2024-01-07T12:57:48;2.50;99.90
75442;DHT22;64019;48.312;14.226;2024-01-07T13:00:15;2.50;99.90
75442;DHT22;64019;48.312;14.226;2024-01-07T13:02:51;2.50;99.90
75442;DHT22;64019;48.312;14.226;2024-01-07T13:05:17;2.50;99.90
75442;DHT22;64019;48.312;14.226;2024-01-07T13:07:43;2.40;99.90
75442;DHT22;64019;48.312;14.226;2024-01-07T13:10:17;2.50;99.90
75442;DHT22;64019;48.312;14.226;2024-01-07T13:12:43;2.50;99.90
75442;DHT22;64019;48.312;14.226;2024-01-07T13:15:09;2.50;99.90
75442;DHT22;64019;48.312;14.226;2024-01-07T13:17:34;2.50;99.90
75442;DHT22;64019;48.312;14.226;2024-01-07T13:20:00;2.50;99.90
75442;DHT22;64019;48.312;14.226;2024-01-07T13:22:26;2.50;99.90
75442;DHT22;64019;48.312;14.226;2024-01-07T13:24:52;2.40;99.90
75442;DHT22;64019;48.312;14.226;2024-01-07T13:27:20;2.40;99.90
75442;DHT22;64019;48.312;14.226;2024-01-07T13:29:47;2.40;99.90
75442;DHT22;64019;48.312;14.226;2024-01-07T13:32:13;2.40;99.90
75442;DHT22;64019;48.312;14.226;2024-01-07T13:34:47;2.40;99.90
75442;DHT22;64019;48.312;14.226;2024-01-07T13:37:13;2.40;99.90
75442;DHT22;64019;48.312;14.226;2024-01-07T13:39:39;2.50;99.90
75442;DHT22;64019;48.312;14.226;2024-01-07T13:42:05;2.50;99.90
75442;DHT22;64019;48.312;14.226;2024-01-07T13:44:31;2.50;99.90
75442;DHT22;64019;48.312;14.226;2024-01-07T13:46:57;2.60;99.90
75442;DHT22;64019;48.312;14.226;2024-01-07T13:49:25;2.50;99.90
75442;DHT22;64019;48.312;14.226;2024-01-07T13:51:54;2.50;99.90
75442;DHT22;64019;48.312;14.226;2024-01-07T13:54:20;2.40;99.90
75442;DHT22;64019;48.312;14.226;2024-01-07T13:56:57;2.40;99.90
75442;DHT22;64019;48.312;14.226;2024-01-07T13:59:26;2.40;99.90
75442;DHT22;64019;48.312;14.226;2024-01-07T14:01:55;2.40;99.90
75442;DHT22;64019;48.312;14.226;2024-01-07T14:04:20;2.50;99.90
75442;DHT22;64019;48.312;14.226;2024-01-07T14:06:46;2.40;99.90
75442;DHT22;64019;48.312;14.226;2024-01-07T14:09:12;2.30;99.90
75442;DHT22;64019;48.312;14.226;2024-01-07T14:11:38;2.30;99.90
75442;DHT22;64019;48.312;14.226;2024-01-07T14:14:04;2.30;99.90
75442;DHT22;64019;48.312;14.226;2024-01-07T14:16:29;2.30;99.90
75442;DHT22;64019;48.312;14.226;2024-01-07T14:18:55;2.20;99.90
75442;DHT22;64019;48.312;14.226;2024-01-07T14:21:21;2.20;99.90
75442;DHT22;64019;48.312;14.226;2024-01-07T14:23:47;2.20;99.90
75442;DHT22;64019;48.312;14.226;2024-01-07T14:26:13;2.20;99.90
75442;DHT22;64019;48.312;14.226;2024-01-07T14:28:40;2.10;99.90
75442;DHT22;64019;48.312;14.226;2024-01-07T14:31:06;2.20;99.90
75442;DHT22;64019;48.312;14.226;2024-01-07T14:33:32;2.20;99.90
75442;DHT22;64019;48.312;14.226;2024-01-07T14:35:58;2.20;99.90
75442;DHT22;64019;48.312;14.226;2024-01-07T14:38:24;2.20;99.90
75442;DHT22;64019;48.312;14.226;2024-01-07T14:40:51;2.10;99.90
75442;DHT22;64019;48.312;14.226;2024-01-07T14:43:17;2.20;99.90
75442;DHT22;64019;48.312;14.226;2024-01-07T14:45:43;2.20;99.90
75442;DHT22;64019;48.312;14.226;2024-01-07T14:48:08;2.10;99.90
75442;DHT22;64019;48.312;14.226;2024-01-07T14:50:34;2.20;99.90
75442;DHT22;64019;48.312;14.226;2024-01-07T14:53:00;2.20;99.90
75442;DHT22;64019;48.312;14.226;2024-01-07T14:55:26;2.20;99.90
75442;DHT22;64019;48.312;14.226;2024-01-07T14:57:52;2.20;99.90
75442;DHT22;64019;48.312;14.226;2024-01-07T15:00:18;2.20;99.90
75442;DHT22;64019;48.312;14.226;2024-01-07T15:02:44;2.20;99.90
75442;DHT22;64019;48.312;14.226;2024-01-07T15:05:09;2.20;99.90
75442;DHT22;64019;48.312;14.226;2024-01-07T15:07:35;2.10;99.90
75442;DHT22;64019;48.312;14.226;2024-01-07T15:10:01;2.20;99.90
75442;DHT22;64019;48.312;14.226;2024-01-07T15:12:27;2.10;99.90
75442;DHT22;64019;48.312;14.226;2024-01-07T15:15:02;2.10;99.90
75442;DHT22;64019;48.312;14.226;2024-01-07T15:17:31;1.90;99.90
75442;DHT22;64019;48.312;14.226;2024-01-07T15:19:57;1.90;99.90
75442;DHT22;64019;48.312;14.226;2024-01-07T15:22:22;1.80;99.90
75442;DHT22;64019;48.312;14.226;2024-01-07T15:24:48;1.90;99.90
75442;DHT22;64019;48.312;14.226;2024-01-07T15:27:14;1.90;99.90
75442;DHT22;64019;48.312;14.226;2024-01-07T15:29:39;1.80;99.90
75442;DHT22;64019;48.312;14.226;2024-01-07T15:32:05;1.80;99.90
75442;DHT22;64019;48.312;14.226;2024-01-07T15:34:31;1.80;99.90
75442;DHT22;64019;48.312;14.226;2024-01-07T15:36:57;1.90;99.90